Time;durP1;ratioP1;P1;durP2;ratioP2;P2;SDS_P1;SDS_P2;PMS_P1;PMS_P2;Temp;Humidity;BMP_temperature;BMP_pressure;BME280_temperature;BME280_humidity;BME280_pressure;Samples;Min_cycle;Max_cycle;Signal;HPM_P1;HPM_P2
2022/08/23 00:02:15;;;;;;;12.55;4.80;;;;;;;21.16;62.53;101244.09;5073253;28;20029;-56
2022/08/23 00:04:50;;;;;;;11.40;4.40;;;;;;;21.16;62.65;101240.53;5072369;28;20040;-53
2022/08/23 00:07:41;;;;;;;14.20;5.05;;;;;;;21.15;62.93;101241.69;5058472;28;20036;-55
2022/08/23 00:10:11;;;;;;;11.48;4.70;;;;;;;21.13;62.83;101241.19;5073507;28;20040;-54
2022/08/23 00:12:39;;;;;;;12.50;4.85;;;;;;;21.10;63.07;101239.91;5055598;28;20165;-50
2022/08/23 00:15:09;;;;;;;11.13;4.72;;;;;;;21.09;63.25;101238.25;5055729;28;20039;-49
2022/08/23 00:17:38;;;;;;;10.52;4.20;;;;;;;21.10;63.07;101239.91;5054170;28;20033;-49
2022/08/23 00:20:09;;;;;;;10.25;4.57;;;;;;;21.11;63.25;101230.44;5072163;28;20040;-50
2022/08/23 00:22:38;;;;;;;12.27;4.50;;;;;;;21.16;62.99;101237.75;5073249;28;20032;-53
2022/08/23 00:25:08;;;;;;;10.05;3.75;;;;;;;21.20;62.92;101242.31;5072646;28;20051;-56
2022/08/23 00:27:37;;;;;;;12.23;4.80;;;;;;;21.23;62.85;101238.88;5073265;28;20036;-55
2022/08/23 00:30:07;;;;;;;11.80;4.50;;;;;;;21.25;62.61;101236.59;5052998;28;20054;-52
2022/08/23 00:32:36;;;;;;;13.35;4.90;;;;;;;21.21;62.60;101232.03;5055528;28;20036;-54
2022/08/23 00:35:06;;;;;;;13.40;4.82;;;;;;;21.12;63.09;101231.25;5072771;28;20391;-49
2022/08/23 00:37:34;;;;;;;10.85;4.72;;;;;;;21.06;63.39;101227.84;5054760;28;20040;-48
2022/08/23 00:40:04;;;;;;;13.35;4.63;;;;;;;21.01;63.42;101236.31;5072533;28;20411;-51
2022/08/23 00:48:30;;;;;;;11.98;4.90;;;;;;;20.84;64.40;101226.91;5077000;28;20040;-56
2022/08/23 00:51:26;;;;;;;10.25;4.43;;;;;;;20.83;64.41;101228.06;5074778;28;20040;-54
2022/08/23 00:53:56;;;;;;;10.20;4.35;;;;;;;20.84;64.43;101231.63;5059251;28;20071;-54
2022/08/23 00:56:25;;;;;;;12.32;5.05;;;;;;;20.87;64.42;101233.75;5042619;28;20037;-56
2022/08/23 00:58:56;;;;;;;10.93;4.75;;;;;;;20.88;64.43;101234.53;5059556;28;20041;-54
2022/08/23 01:01:24;;;;;;;12.80;4.32;;;;;;;20.92;64.38;101241.06;5075063;28;20410;-52
2022/08/23 01:03:55;;;;;;;10.80;4.90;;;;;;;20.92;64.27;101235.53;5076316;28;20117;-53
2022/08/23 01:06:37;;;;;;;13.55;4.63;;;;;;;20.85;64.36;101231.31;5059913;28;20044;-54
2022/08/23 01:09:11;;;;;;;9.88;4.13;;;;;;;20.82;64.56;101243.03;5059087;28;20051;-55
2022/08/23 01:11:42;;;;;;;12.80;4.13;;;;;;;20.86;64.73;101243.19;5076269;28;20517;-55
2022/08/23 01:14:33;;;;;;;12.20;4.53;;;;;;;20.86;64.37;101245.97;5057626;28;20633;-55
2022/08/23 01:17:09;;;;;;;13.65;4.85;;;;;;;20.79;64.81;101245.66;5058201;28;20045;-53
2022/08/23 01:19:48;;;;;;;10.10;4.30;;;;;;;20.73;65.12;101244.97;5058527;28;20044;-52
2022/08/23 01:22:48;;;;;;;12.90;4.72;;;;;;;20.69;65.44;101240.44;5070014;28;20066;-54
2022/08/23 01:25:20;;;;;;;10.75;4.53;;;;;;;20.61;65.81;101244.81;5048049;28;20099;-54
2022/08/23 01:27:49;;;;;;;13.45;4.70;;;;;;;20.60;65.91;101243.22;5037601;28;20037;-54
2022/08/23 01:30:20;;;;;;;11.80;4.50;;;;;;;20.57;65.96;101239.13;5040808;28;20075;-53
2022/08/23 01:32:56;;;;;;;11.45;4.43;;;;;;;20.56;66.07;101242.22;5058213;28;20042;-54
2022/08/23 01:35:38;;;;;;;10.65;5.40;;;;;;;20.61;66.08;101244.81;5057558;28;20044;-54
2022/08/23 01:38:09;;;;;;;15.20;5.10;;;;;;;20.60;66.11;101240.44;5041848;28;20094;-53
2022/08/23 01:40:37;;;;;;;12.35;4.78;;;;;;;20.57;66.34;101238.34;5057884;28;20053;-51
2022/08/23 01:43:07;;;;;;;15.55;4.97;;;;;;;20.54;66.33;101236.16;5057980;28;20089;-52
2022/08/23 01:45:36;;;;;;;12.80;4.53;;;;;;;20.53;66.91;101237.31;5056740;28;20048;-53
2022/08/23 01:48:07;;;;;;;12.13;4.68;;;;;;;20.51;66.83;101239.59;5057867;28;20047;-53
2022/08/23 01:50:36;;;;;;;11.13;4.38;;;;;;;20.50;66.89;101235.19;5057953;28;20040;-53
2022/08/23 01:53:05;;;;;;;9.27;3.88;;;;;;;20.52;66.97;101235.69;5038778;28;20037;-53
2022/08/23 01:55:33;;;;;;;10.20;4.03;;;;;;;;;;5041177;28;20044;-53
2022/08/23 01:58:04;;;;;;;10.48;4.80;;;;;;;20.60;66.78;101235.72;5055476;28;20044;-52
2022/08/23 02:00:35;;;;;;;9.27;4.30;;;;;;;20.62;66.80;101240.94;5054430;28;20039;-54
2022/08/23 02:03:05;;;;;;;9.63;4.47;;;;;;;20.64;66.59;101231.16;5068889;28;20045;-53
2022/08/23 02:05:36;;;;;;;11.23;4.82;;;;;;;20.67;66.44;101234.41;5057907;28;20044;-54
2022/08/23 02:10:54;;;;;;;11.95;4.72;;;;;;;20.61;66.99;101236.53;5043080;28;20054;-56
2022/08/23 02:13:25;;;;;;;9.15;4.55;;;;;;;20.62;67.11;101235.41;5057043;28;20048;-53
2022/08/23 02:15:54;;;;;;;11.63;4.75;;;;;;;20.63;67.06;101240.59;5057643;28;20036;-57
2022/08/23 02:18:23;;;;;;;11.57;5.00;;;;;;;20.62;67.07;101241.75;5039378;28;20441;-58
2022/08/23 02:20:51;;;;;;;9.65;4.70;;;;;;;20.59;67.09;101236.06;5057645;28;20044;-58
2022/08/23 02:23:20;;;;;;;10.80;4.95;;;;;;;20.58;67.33;101237.19;5074299;28;20044;-58
2022/08/23 02:25:50;;;;;;;11.48;5.00;;;;;;;20.54;67.23;101231.47;5057209;28;20094;-57
2022/08/23 02:28:20;;;;;;;12.05;4.78;;;;;;;20.50;67.61;101235.19;5057002;28;20452;-56
2022/08/23 02:30:48;;;;;;;10.57;4.43;;;;;;;20.48;67.90;101235.53;5055696;28;20052;-58
2022/08/23 02:33:16;;;;;;;11.95;4.70;;;;;;;20.49;67.75;101226.06;5057267;28;20399;-58
2022/08/23 02:35:44;;;;;;;8.93;4.95;;;;;;;20.49;67.91;101233.56;5040776;28;20466;-58
2022/08/23 02:38:12;;;;;;;8.40;4.28;;;;;;;20.42;68.13;101229.34;5056696;28;20044;-57
2022/08/23 02:40:41;;;;;;;11.57;5.50;;;;;;;20.40;68.53;101234.38;5057130;28;20047;-57
2022/08/23 02:43:09;;;;;;;12.82;5.22;;;;;;;20.38;68.30;101236.66;5055476;28;20480;-54
2022/08/23 02:45:38;;;;;;;12.20;5.43;;;;;;;20.34;68.56;101241.19;5040695;28;20048;-53
2022/08/23 02:48:07;;;;;;;10.75;4.82;;;;;;;20.33;68.82;101236.81;5057138;28;20042;-54
2022/08/23 02:50:45;;;;;;;8.38;4.65;;;;;;;20.31;68.95;101243.81;5056374;28;20036;-55
2022/08/23 02:53:13;;;;;;;8.38;4.53;;;;;;;20.35;69.23;101247.56;5056746;28;20032;-54
2022/08/23 02:55:44;;;;;;;9.43;4.32;;;;;;;20.41;68.76;101251.78;5055925;28;20062;-54
2022/08/23 02:58:13;;;;;;;7.88;4.43;;;;;;;20.46;68.38;101253.59;5043217;28;20036;-55
2022/08/23 03:00:40;;;;;;;7.97;3.95;;;;;;;20.50;68.40;101254.59;5074468;28;20388;-57
2022/08/23 03:03:09;;;;;;;10.75;5.05;;;;;;;20.50;68.59;101265.66;5056247;28;20406;-55
2022/08/23 03:05:37;;;;;;;10.07;4.63;;;;;;;20.49;68.66;101266.78;5056854;28;20040;-54
2022/08/23 03:08:05;;;;;;;12.95;5.78;;;;;;;20.46;68.88;101267.44;5054809;28;20052;-56
2022/08/23 03:10:42;;;;;;;;;;;;;;;20.42;68.94;101268.09;5056945;28;20055;-53
2022/08/23 03:13:10;;;;;;;12.45;5.35;;;;;;;20.38;69.65;101272.63;5055349;28;19927;-54
2022/08/23 03:15:39;;;;;;;12.85;5.55;;;;;;;20.36;69.50;101272.13;5055972;28;20047;-56
2022/08/23 03:18:07;;;;;;;13.50;5.00;;;;;;;20.35;69.63;101270.53;5039524;28;20507;-58
2022/08/23 03:20:35;;;;;;;12.50;5.72;;;;;;;20.35;69.66;101270.53;5038556;28;20115;-57
2022/08/23 03:23:03;;;;;;;15.65;5.70;;;;;;;20.36;69.73;101274.91;5055947;28;20044;-52
2022/08/23 03:25:31;;;;;;;11.77;6.20;;;;;;;20.33;69.71;101281.09;5056065;28;20054;-54
2022/08/23 03:28:19;;;;;;;14.25;6.53;;;;;;;20.28;70.03;101284.03;5055489;28;20041;-54
2022/08/23 03:30:46;;;;;;;18.92;7.28;;;;;;;20.23;70.18;101281.41;5055634;28;20521;-55
2022/08/23 03:33:14;;;;;;;13.73;7.15;;;;;;;20.18;70.58;101285.16;5072255;28;20044;-51
2022/08/23 03:35:44;;;;;;;14.25;6.90;;;;;;;20.12;70.80;101289.19;5039583;28;20058;-54
2022/08/23 03:38:13;;;;;;;11.95;6.50;;;;;;;20.11;70.97;101286.75;5039522;28;20037;-54
2022/08/23 03:40:43;;;;;;;17.45;7.38;;;;;;;20.07;71.10;101288.53;5038827;28;20068;-52
2022/08/23 03:43:10;;;;;;;15.48;7.10;;;;;;;20.07;71.30;101288.53;5039286;28;20517;-55
2022/08/23 03:45:38;;;;;;;17.65;6.93;;;;;;;20.05;71.55;101290.78;5038612;28;20471;-53
2022/08/23 03:48:07;;;;;;;12.30;6.93;;;;;;;20.06;71.44;101295.19;5055930;28;20037;-54
2022/08/23 03:50:36;;;;;;;16.42;6.80;;;;;;;20.08;71.42;101287.38;5038982;28;20040;-58
2022/08/23 03:53:04;;;;;;;14.38;6.75;;;;;;;20.09;71.45;101289.03;5055702;28;20048;-58
2022/08/23 03:55:32;;;;;;;14.00;7.00;;;;;;;20.08;71.26;101303.97;5039068;28;20056;-57
2022/08/23 03:58:09;;;;;;;16.83;7.07;;;;;;;20.06;71.39;101292.41;5054795;28;20037;-54
2022/08/23 04:00:38;;;;;;;18.23;7.07;;;;;;;20.06;71.47;101295.19;5055263;28;20032;-56
2022/08/23 04:03:06;;;;;;;12.55;6.47;;;;;;;20.06;71.45;101295.19;5072167;28;20075;-55
2022/08/23 04:05:46;;;;;;;13.57;7.07;;;;;;;20.06;71.49;101296.00;5053565;28;20052;-56
2022/08/23 04:08:18;;;;;;;12.93;7.10;;;;;;;20.07;71.53;101299.59;5071366;28;20032;-56
2022/08/23 04:11:02;;;;;;;13.50;7.28;;;;;;;20.00;71.49;101298.09;5053779;28;20036;-54
2022/08/23 04:13:31;;;;;;;17.55;6.90;;;;;;;19.92;71.75;101301.66;5053590;28;20113;-56
2022/08/23 04:16:03;;;;;;;15.07;6.88;;;;;;;19.87;72.06;101301.81;5053540;28;20048;-53
2022/08/23 04:18:32;;;;;;;13.05;6.72;;;;;;;19.84;72.53;101299.66;5037608;28;20047;-53
2022/08/23 04:21:09;;;;;;;11.13;6.88;;;;;;;19.87;72.60;101295.47;5053003;28;20045;-54
2022/08/23 04:23:38;;;;;;;11.95;6.18;;;;;;;19.92;72.58;101303.63;5037978;28;20052;-56
2022/08/23 04:26:07;;;;;;;12.38;6.53;;;;;;;19.98;72.30;101303.13;5053585;28;20044;-53
2022/08/23 04:28:37;;;;;;;14.07;7.47;;;;;;;20.03;72.15;101304.13;5037675;28;20036;-58
2022/08/23 04:31:05;;;;;;;11.02;6.43;;;;;;;19.99;71.90;101307.53;5054503;28;20049;-54
2022/08/23 04:33:34;;;;;;;14.05;6.32;;;;;;;19.92;72.11;101296.13;5037150;28;20044;-54
2022/08/23 04:36:07;;;;;;;14.40;6.72;;;;;;;19.88;72.45;101305.38;5055384;28;20063;-54
2022/08/23 04:38:34;;;;;;;15.52;6.85;;;;;;;19.87;72.74;101307.34;5054403;28;20040;-53
2022/08/23 04:43:55;;;;;;;16.50;6.95;;;;;;;19.84;72.83;101299.66;5054605;28;20037;-55
2022/08/23 04:46:24;;;;;;;14.43;6.85;;;;;;;19.86;72.88;101304.88;5053186;28;20041;-52
2022/08/23 04:48:54;;;;;;;18.08;7.35;;;;;;;19.87;72.59;101312.88;5054414;28;20048;-52
2022/08/23 04:51:21;;;;;;;12.48;6.32;;;;;;;19.88;72.50;101302.63;5054539;28;20076;-52
2022/08/23 04:53:49;;;;;;;14.63;7.43;;;;;;;19.88;72.64;101306.19;5072611;28;20041;-51
2022/08/23 04:56:36;;;;;;;14.52;6.57;;;;;;;19.85;73.29;101317.91;5072050;28;20040;-53
2022/08/23 04:59:04;;;;;;;13.30;6.97;;;;;;;19.80;73.46;101312.50;5037558;28;20056;-52
2022/08/23 05:01:33;;;;;;;12.27;6.53;;;;;;;19.78;73.92;101317.53;5054317;28;20052;-53
2022/08/23 05:04:02;;;;;;;14.65;7.05;;;;;;;19.79;74.15;101319.16;5054083;28;20610;-54
2022/08/23 05:06:31;;;;;;;12.65;6.88;;;;;;;19.77;73.97;101318.66;5054689;28;20037;-54
2022/08/23 05:09:00;;;;;;;14.15;7.40;;;;;;;19.80;73.87;101320.81;5037990;28;20085;-58
2022/08/23 05:11:29;;;;;;;15.13;7.60;;;;;;;19.78;73.40;101323.06;5052874;28;20040;-55
2022/08/23 05:13:57;;;;;;;13.68;6.57;;;;;;;19.76;73.37;101315.06;5072927;28;20049;-58
2022/08/23 05:16:25;;;;;;;16.40;7.78;;;;;;;19.77;73.26;101316.72;5024328;28;20057;-54
2022/08/23 05:19:01;;;;;;;12.27;7.07;;;;;;;19.75;73.04;101315.41;5039332;28;20491;-59
2022/08/23 05:21:32;;;;;;;13.57;8.05;;;;;;;19.76;72.77;101317.03;5054142;28;20044;-52
2022/08/23 05:24:01;;;;;;;16.23;8.57;;;;;;;19.74;72.89;101324.81;5053560;28;20045;-53
2022/08/23 05:26:31;;;;;;;16.00;8.50;;;;;;;19.70;73.12;101323.81;5052628;28;20045;-53
2022/08/23 05:28:58;;;;;;;15.68;7.28;;;;;;;19.74;73.26;101316.53;5054087;28;20445;-54
2022/08/23 05:31:33;;;;;;;15.30;7.72;;;;;;;19.81;73.10;101314.13;5054166;28;20056;-54
2022/08/23 05:34:03;;;;;;;13.68;7.30;;;;;;;19.88;72.73;101322.78;5057974;28;20040;-52
2022/08/23 05:36:50;;;;;;;13.18;6.07;;;;;;;19.95;72.78;101328.66;5056108;28;20131;-52
2022/08/23 05:39:26;;;;;;;14.98;6.80;;;;;;;19.98;72.71;101325.25;5042551;28;20043;-47
2022/08/23 05:42:08;;;;;;;11.18;6.35;;;;;;;20.00;72.93;101336.00;5041406;28;20044;-47
2022/08/23 05:44:36;;;;;;;9.82;6.00;;;;;;;20.05;72.87;101343.34;5058096;28;20521;-51
2022/08/23 05:47:09;;;;;;;10.27;6.53;;;;;;;20.09;72.74;101349.88;5057231;28;20055;-50
2022/08/23 05:50:04;;;;;;;11.52;6.30;;;;;;;20.17;72.45;101357.38;5062766;28;20057;-56
2022/08/23 05:52:35;;;;;;;13.48;6.75;;;;;;;20.22;72.34;101365.53;5040743;28;20055;-50
2022/08/23 05:55:04;;;;;;;11.50;6.43;;;;;;;20.26;71.97;101366.53;5041019;28;20409;-51
2022/08/23 05:57:52;;;;;;;11.25;6.40;;;;;;;20.31;71.68;101357.28;5046696;28;20041;-49
2022/08/23 06:00:26;;;;;;;12.04;6.13;;;;;;;20.35;71.55;101363.81;4528187;28;10003646;-53
2022/08/23 06:03:07;;;;;;;10.90;6.28;;;;;;;20.37;71.30;101356.81;5042122;28;20057;-51
2022/08/23 06:05:39;;;;;;;12.48;7.28;;;;;;;20.39;71.11;101360.06;5054078;28;20085;-52
2022/08/23 06:08:07;;;;;;;13.23;7.72;;;;;;;20.41;71.00;101362.50;5054236;28;20402;-52
2022/08/23 06:10:36;;;;;;;13.32;6.60;;;;;;;20.43;70.95;101363.81;5053423;28;20044;-49
2022/08/23 06:13:31;;;;;;;17.08;7.10;;;;;;;20.45;71.12;101366.28;5056778;28;20037;-50
2022/08/23 06:15:59;;;;;;;22.10;9.13;;;;;;;20.46;71.41;101365.13;5053894;28;20129;-51
2022/08/23 06:18:41;;;;;;;21.20;8.25;;;;;;;20.47;71.40;101361.25;5054026;28;20044;-52
2022/08/23 06:21:29;;;;;;;18.02;7.80;;;;;;;20.46;71.24;101370.66;5056393;28;20044;-51
2022/08/23 06:23:57;;;;;;;15.73;7.32;;;;;;;20.47;71.48;101371.47;5036770;28;20088;-54
2022/08/23 06:26:29;;;;;;;15.80;8.18;;;;;;;20.48;71.70;101373.94;5048307;28;20036;-55
2022/08/23 06:29:01;;;;;;;17.75;8.05;;;;;;;20.50;71.68;101371.66;5040502;28;20561;-56
2022/08/23 06:34:37;;;;;;;13.07;6.85;;;;;;;20.55;71.85;101371.53;5031557;28;20055;-52
2022/08/23 06:37:28;;;;;;;16.45;8.10;;;;;;;20.61;72.00;101377.72;5055099;28;20664;-55
2022/08/23 06:40:24;;;;;;;20.50;7.97;;;;;;;20.62;71.80;101374.66;5053158;28;20036;-52
2022/08/23 06:43:00;;;;;;;21.85;9.05;;;;;;;20.65;71.63;101373.19;5051862;28;20044;-54
2022/08/23 06:45:46;;;;;;;;;;;;;;;20.66;70.95;101372.06;5056071;28;20051;-52
2022/08/23 06:48:22;;;;;;;19.08;8.35;;;;;;;20.69;71.19;101371.41;5056319;28;19921;-57
2022/08/23 06:50:50;;;;;;;12.38;8.00;;;;;;;20.71;70.89;101373.84;5054997;28;20037;-52
2022/08/23 06:53:44;;;;;;;15.70;9.20;;;;;;;20.73;70.78;101375.16;5069944;28;20059;-48
2022/08/23 06:56:34;;;;;;;19.48;8.27;;;;;;;20.76;70.63;101374.53;5073603;28;20506;-51
2022/08/23 06:59:06;;;;;;;19.05;8.30;;;;;;;20.77;70.33;101367.81;5069344;28;20407;-49
2022/08/23 07:01:59;;;;;;;13.38;6.50;;;;;;;20.79;70.38;101368.31;5055672;28;20052;-49
2022/08/23 07:04:54;;;;;;;12.98;7.68;;;;;;;20.88;69.95;101370.28;5048822;28;20063;-48
2022/08/23 07:07:40;;;;;;;14.18;7.80;;;;;;;20.91;69.24;101364.09;5074277;28;20044;-49
2022/08/23 07:10:13;;;;;;;16.35;8.68;;;;;;;20.91;68.73;101370.44;5055869;28;20045;-48
2022/08/23 07:12:42;;;;;;;13.60;7.68;;;;;;;20.92;68.60;101376.81;5055873;28;20045;-49
2022/08/23 07:15:13;;;;;;;16.77;8.57;;;;;;;20.93;68.68;101372.91;5073711;28;20043;-49
2022/08/23 07:17:45;;;;;;;18.35;8.57;;;;;;;20.94;68.90;101369.00;5054804;28;20033;-49
2022/08/23 07:20:12;;;;;;;14.40;7.43;;;;;;;20.95;69.08;101376.16;5055211;28;20049;-49
2022/08/23 07:22:43;;;;;;;15.55;8.68;;;;;;;20.96;69.11;101377.78;5038642;28;20527;-52
2022/08/23 07:25:11;;;;;;;13.77;7.80;;;;;;;20.97;69.09;101380.25;5055341;28;20041;-50
2022/08/23 07:27:40;;;;;;;13.10;7.72;;;;;;;21.02;69.01;101382.00;5039392;28;20040;-49
2022/08/23 07:30:09;;;;;;;59.10;17.35;;;;;;;21.08;68.98;101383.50;5054391;28;20053;-51
2022/08/23 07:32:39;;;;;;;38.53;14.50;;;;;;;21.09;68.93;101382.34;5054933;28;20041;-49
2022/08/23 07:35:21;;;;;;;34.17;13.75;;;;;;;21.11;68.84;101385.63;5040748;28;20044;-52
2022/08/23 07:37:50;;;;;;;31.63;13.35;;;;;;;21.15;68.91;101378.28;5055464;28;20085;-48
2022/08/23 07:40:18;;;;;;;24.92;11.07;;;;;;;21.18;68.70;101383.16;5054611;28;20049;-50
2022/08/23 07:42:50;;;;;;;18.75;9.98;;;;;;;21.21;68.45;101395.56;5054442;28;20444;-50
2022/08/23 07:45:20;;;;;;;21.15;10.00;;;;;;;21.24;67.91;101394.91;5055098;28;20113;-50
2022/08/23 07:47:53;;;;;;;19.17;10.52;;;;;;;21.24;67.19;101398.50;5053875;28;20040;-52
2022/08/23 07:50:22;;;;;;;17.98;8.63;;;;;;;21.24;67.55;101404.03;5055114;28;20047;-49
2022/08/23 07:52:52;;;;;;;18.50;8.50;;;;;;;21.26;67.43;101400.94;5055228;28;20047;-48
2022/08/23 07:55:20;;;;;;;20.45;8.77;;;;;;;21.28;67.73;101405.00;5054330;28;20089;-50
2022/08/23 07:58:06;;;;;;;13.20;8.20;;;;;;;21.33;67.76;101408.75;5061258;28;20045;-50
2022/08/23 08:00:46;;;;;;;15.05;9.65;;;;;;;21.36;67.99;101408.09;5054409;28;20033;-53
2022/08/23 08:03:36;;;;;;;21.85;11.77;;;;;;;21.35;67.72;101407.28;5054541;28;20078;-49
2022/08/23 08:06:15;;;;;;;18.50;8.90;;;;;;;21.36;67.85;101413.66;5054904;28;20407;-49
2022/08/23 08:08:47;;;;;;;15.73;8.68;;;;;;;21.42;67.62;101409.59;5054085;28;20094;-50
2022/08/23 08:11:19;;;;;;;13.82;7.95;;;;;;;21.47;67.69;101414.97;5052835;28;20415;-49
2022/08/23 08:13:48;;;;;;;16.75;9.88;;;;;;;21.49;67.53;101413.50;5054921;28;20037;-55
2022/08/23 08:16:25;;;;;;;21.67;10.50;;;;;;;21.51;67.34;101417.94;5054815;28;20029;-52
2022/08/23 08:18:55;;;;;;;19.80;11.50;;;;;;;21.51;67.06;101421.50;5054849;28;20037;-56
2022/08/23 08:21:44;;;;;;;23.42;10.85;;;;;;;21.53;66.69;101419.22;5056108;28;20376;-56
2022/08/23 08:24:30;;;;;;;18.70;10.25;;;;;;;21.54;66.71;101426.38;5070015;28;20403;-55
2022/08/23 08:27:02;;;;;;;19.70;11.63;;;;;;;21.58;67.09;101430.16;5054087;28;20032;-56
2022/08/23 08:29:30;;;;;;;19.90;12.45;;;;;;;21.61;67.64;101423.13;5054011;28;20044;-57
2022/08/23 08:31:58;;;;;;;19.15;12.27;;;;;;;21.64;67.84;101430.78;5054130;28;20052;-53
2022/08/23 08:34:26;;;;;;;19.35;10.75;;;;;;;21.66;67.50;101429.31;5053968;28;20048;-52
2022/08/23 08:36:57;;;;;;;14.15;9.55;;;;;;;21.69;67.79;101427.84;5054345;28;20048;-53
2022/08/23 08:39:29;;;;;;;20.75;11.75;;;;;;;21.72;67.67;101426.34;5054374;28;20044;-51
2022/08/23 08:42:11;;;;;;;16.77;10.45;;;;;;;21.74;67.58;101418.53;5054709;28;20503;-56
2022/08/23 08:44:54;;;;;;;20.13;11.32;;;;;;;21.80;67.42;101428.31;5054877;28;20069;-57
2022/08/23 08:47:40;;;;;;;28.58;13.15;;;;;;;21.82;67.20;101426.84;5039667;28;20490;-57
2022/08/23 08:50:26;;;;;;;18.65;11.35;;;;;;;21.84;66.94;101430.09;5038873;28;20036;-57
2022/08/23 08:53:01;;;;;;;19.02;11.48;;;;;;;21.87;66.77;101426.66;5055514;28;20032;-54
2022/08/23 08:55:51;;;;;;;18.77;9.25;;;;;;;21.91;66.61;101429.59;5072750;28;20395;-51
2022/08/23 08:58:38;;;;;;;27.88;13.43;;;;;;;21.95;66.83;101433.34;5037964;28;20046;-51
2022/08/23 09:01:06;;;;;;;32.50;13.27;;;;;;;22.00;66.67;101433.16;5037521;28;20138;-52
2022/08/23 09:03:35;;;;;;;18.60;12.23;;;;;;;22.07;66.52;101433.47;5054188;28;20055;-54
2022/08/23 09:06:44;;;;;;;23.10;13.45;;;;;;;22.11;66.98;101434.44;5072111;28;20033;-60
2022/08/23 09:09:45;;;;;;;22.08;13.25;;;;;;;22.23;66.53;101438.53;4993182;28;20053;-58
2022/08/23 09:12:36;;;;;;;20.70;11.35;;;;;;;22.30;66.00;101441.59;5041432;28;20506;-57
2022/08/23 09:15:26;;;;;;;15.50;9.93;;;;;;;22.30;66.05;101436.84;5053123;28;20621;-58
2022/08/23 09:17:59;;;;;;;19.27;11.60;;;;;;;22.32;66.06;101439.28;5041986;28;20506;-55
2022/08/23 09:20:28;;;;;;;21.67;11.13;;;;;;;22.37;66.34;101441.88;5041825;28;20037;-59
2022/08/23 09:23:10;;;;;;;21.80;11.95;;;;;;;22.43;66.06;101442.50;5041947;28;20055;-57
2022/08/23 09:25:39;;;;;;;16.30;9.00;;;;;;;22.42;65.84;101436.16;5042065;28;20048;-58
2022/08/23 09:28:15;;;;;;;18.33;9.52;;;;;;;22.42;66.03;101441.69;5058090;28;20120;-55
2022/08/23 09:30:47;;;;;;;22.20;9.98;;;;;;;22.45;66.02;101437.44;5057568;28;20064;-58
2022/08/23 09:33:18;;;;;;;16.90;9.02;;;;;;;22.49;65.33;101432.84;5057748;28;20040;-55
2022/08/23 09:36:05;;;;;;;19.95;8.68;;;;;;;22.52;65.08;101438.53;5076063;28;20043;-54
2022/08/23 09:38:36;;;;;;;21.08;11.95;;;;;;;22.60;64.62;101439.66;5054118;28;20037;-53
2022/08/23 09:41:18;;;;;;;21.52;11.65;;;;;;;22.70;64.66;101438.44;5040951;28;20094;-58
2022/08/23 09:43:51;;;;;;;17.48;9.70;;;;;;;22.76;64.72;101437.13;5042102;28;20162;-54
2022/08/23 09:46:34;;;;;;;16.42;8.35;;;;;;;22.78;63.92;101443.16;5057893;28;20036;-57
2022/08/23 09:49:25;;;;;;;18.50;9.25;;;;;;;22.84;63.18;101439.00;5057150;28;20089;-54
2022/08/23 09:52:19;;;;;;;19.55;10.82;;;;;;;22.90;63.20;101443.25;5057622;28;20040;-53
2022/08/23 09:55:08;;;;;;;25.30;11.65;;;;;;;22.97;63.26;101437.97;5057596;28;20491;-58
2022/08/23 09:57:46;;;;;;;23.52;11.80;;;;;;;23.03;63.39;101435.81;5057734;28;20033;-56
2022/08/23 10:00:22;;;;;;;21.63;11.13;;;;;;;23.05;63.30;101427.97;5040380;28;20040;-59
2022/08/23 10:02:56;;;;;;;21.58;11.50;;;;;;;23.11;63.19;101425.78;5053955;28;20115;-56
2022/08/23 10:05:37;;;;;;;20.27;10.25;;;;;;;23.18;62.35;101434.41;5040969;28;20036;-55
2022/08/23 10:08:07;;;;;;;20.95;10.38;;;;;;;23.24;61.92;101430.28;5014282;28;20051;-52
2022/08/23 10:10:48;;;;;;;19.00;10.52;;;;;;;23.27;61.54;101429.59;5057319;28;20048;-56
2022/08/23 10:13:22;;;;;;;18.33;9.23;;;;;;;23.34;60.89;101418.72;5029844;28;20037;-54
2022/08/23 10:16:04;;;;;;;21.75;8.88;;;;;;;23.42;60.17;101430.13;5071978;28;20044;-54
2022/08/23 10:18:50;;;;;;;20.95;8.30;;;;;;;23.47;59.48;101427.13;5068104;28;20048;-55
2022/08/23 10:21:40;;;;;;;18.15;7.43;;;;;;;23.50;59.56;101424.50;5057130;28;20039;-54
2022/08/23 10:24:27;;;;;;;16.33;6.65;;;;;;;23.54;59.91;101427.38;5057362;28;20049;-54
2022/08/23 10:30:18;;;;;;;23.23;6.07;;;;;;;23.62;59.83;101420.94;5039250;28;20053;-54
2022/08/23 10:33:06;;;;;;;19.25;6.35;;;;;;;23.68;59.13;101418.75;5037499;28;20094;-54
2022/08/23 10:36:06;;;;;;;14.60;5.32;;;;;;;23.66;58.87;101427.44;5037226;28;20041;-55
2022/08/23 10:38:47;;;;;;;13.55;4.85;;;;;;;23.74;57.81;101425.75;5050658;28;20047;-58
2022/08/23 10:41:37;;;;;;;16.95;4.82;;;;;;;23.77;57.28;101422.28;5053594;28;20037;-57
2022/08/23 10:44:26;;;;;;;14.55;4.47;;;;;;;23.83;57.41;101422.88;5038847;28;20044;-57
2022/08/23 10:47:07;;;;;;;12.40;4.22;;;;;;;23.86;56.44;101422.19;5055509;28;20048;-57
2022/08/23 10:49:38;;;;;;;12.43;4.03;;;;;;;23.88;55.90;101420.69;5052930;28;20415;-57
2022/08/23 10:52:12;;;;;;;12.45;4.57;;;;;;;23.88;56.60;101420.69;5053785;28;20055;-57
2022/08/23 10:54:58;;;;;;;16.80;4.93;;;;;;;23.93;56.20;101422.44;5037106;28;20415;-56
2022/08/23 10:57:35;;;;;;;10.68;4.15;;;;;;;23.93;56.62;101422.44;5052511;28;20037;-58
2022/08/23 11:00:17;;;;;;;14.85;4.47;;;;;;;23.88;56.39;101419.88;5036104;28;20430;-54
2022/08/23 11:02:49;;;;;;;13.73;4.55;;;;;;;23.92;56.55;101415.25;5037303;28;20045;-56
2022/08/23 11:05:25;;;;;;;;;;;;;;;24.05;56.50;101407.72;5053708;28;20037;-57
2022/08/23 11:08:02;;;;;;;13.93;4.55;;;;;;;24.07;56.50;101403.44;5035263;28;20299;-58
2022/08/23 11:10:47;;;;;;;11.18;4.63;;;;;;;24.07;55.93;101409.00;5052431;28;20052;-56
2022/08/23 11:13:28;;;;;;;12.70;4.30;;;;;;;24.13;56.54;101413.19;5041806;28;20049;-56
2022/08/23 11:16:13;;;;;;;11.32;4.18;;;;;;;24.11;54.38;101400.78;5036281;28;20517;-56
2022/08/23 11:18:49;;;;;;;10.40;4.32;;;;;;;24.16;54.86;101404.16;5051897;28;20526;-53
2022/08/23 11:21:37;;;;;;;13.40;4.63;;;;;;;24.19;53.53;101403.44;5052662;28;20495;-55
2022/08/23 11:24:11;;;;;;;9.27;3.67;;;;;;;24.21;54.08;101405.91;5052738;28;20094;-52
2022/08/23 11:26:40;;;;;;;7.65;3.60;;;;;;;24.20;54.18;101399.50;5052788;28;20040;-52
2022/08/23 11:29:09;;;;;;;9.98;3.97;;;;;;;24.24;54.76;101402.41;5052263;28;20047;-51
2022/08/23 11:32:01;;;;;;;11.38;4.18;;;;;;;24.26;54.98;101413.22;5052161;28;20458;-55
2022/08/23 11:34:47;;;;;;;12.05;3.90;;;;;;;24.35;54.39;101405.56;5052356;28;20033;-52
2022/08/23 11:37:18;;;;;;;10.65;3.88;;;;;;;24.42;53.71;101422.50;5052375;28;20040;-56
2022/08/23 11:39:56;;;;;;;12.47;3.80;;;;;;;24.51;53.61;101414.88;5048881;28;20037;-55
2022/08/23 11:42:47;;;;;;;10.70;3.58;;;;;;;24.54;53.43;101408.59;5052255;28;20286;-54
2022/08/23 11:45:36;;;;;;;9.80;3.50;;;;;;;24.62;53.36;101416.03;5035033;28;20094;-53
2022/08/23 11:48:13;;;;;;;9.77;3.47;;;;;;;24.62;52.24;101410.44;5052141;28;20049;-56
2022/08/23 11:50:51;;;;;;;6.72;3.00;;;;;;;24.69;52.05;101404.28;5051063;28;20048;-56
2022/08/23 11:53:30;;;;;;;12.85;3.72;;;;;;;24.72;51.78;101409.16;5053219;28;20049;-53
2022/08/23 11:56:28;;;;;;;10.07;3.20;;;;;;;24.75;51.84;101404.84;5053512;28;20036;-55
2022/08/23 11:59:15;;;;;;;9.27;2.92;;;;;;;24.82;51.45;101396.72;5052885;28;20151;-55
2022/08/23 12:01:45;;;;;;;7.68;2.75;;;;;;;24.88;51.48;101406.47;5050299;28;20103;-55
2022/08/23 12:04:37;;;;;;;8.73;3.10;;;;;;;24.92;51.33;101395.41;5051662;28;20037;-56
2022/08/23 12:07:11;;;;;;;7.85;3.15;;;;;;;24.94;51.45;101402.25;5052126;28;20041;-56
2022/08/23 12:09:42;;;;;;;8.13;3.13;;;;;;;24.97;51.76;101404.38;5050830;28;20505;-57
2022/08/23 12:12:13;;;;;;;7.63;3.00;;;;;;;25.11;51.32;101398.41;5053080;28;20052;-53